createdAt,value
2022-09-23T00:00:44.172Z,9.27
2022-09-23T00:02:48.902Z,10.00
2022-09-23T00:04:52.060Z,9.33
2022-09-23T00:06:54.635Z,9.70
2022-09-23T00:08:57.284Z,9.30
2022-09-23T00:11:05.276Z,8.53
2022-09-23T00:13:08.886Z,8.30
2022-09-23T00:15:12.178Z,8.77
2022-09-23T00:17:16.022Z,9.70
2022-09-23T00:19:18.610Z,8.70
2022-09-23T00:21:21.927Z,9.17
2022-09-23T00:23:24.648Z,9.27
2022-09-23T00:25:29.595Z,8.50
2022-09-23T00:27:33.857Z,9.10
2022-09-23T00:29:36.867Z,9.03
2022-09-23T00:31:39.427Z,8.27
2022-09-23T00:33:43.495Z,8.90
2022-09-23T00:35:47.278Z,8.30
2022-09-23T00:37:50.000Z,9.10
2022-09-23T00:39:52.568Z,9.33
2022-09-23T00:41:55.957Z,8.40
2022-09-23T00:43:59.484Z,8.07
2022-09-23T00:46:01.237Z,8.27
2022-09-23T00:48:04.986Z,7.97
2022-09-23T00:50:11.009Z,8.50
2022-09-23T00:52:15.376Z,8.83
2022-09-23T00:54:17.913Z,7.77
2022-09-23T00:56:20.884Z,8.67
2022-09-23T00:58:26.679Z,7.27
2022-09-23T01:00:29.761Z,7.83
2022-09-23T01:02:32.818Z,8.47
2022-09-23T01:04:35.444Z,8.40
2022-09-23T01:06:39.353Z,8.17
2022-09-23T01:08:42.607Z,8.13
2022-09-23T01:10:48.937Z,7.20
2022-09-23T01:12:59.407Z,7.10
2022-09-23T01:15:06.608Z,7.43
2022-09-23T01:17:10.751Z,7.60
2022-09-23T01:19:25.227Z,7.43
2022-09-23T01:21:34.136Z,7.33
2022-09-23T01:23:56.239Z,7.90
2022-09-23T01:26:07.264Z,7.30
2022-09-23T01:28:19.567Z,7.70
2022-09-23T01:30:39.092Z,7.80
2022-09-23T01:32:50.131Z,7.37
2022-09-23T01:34:56.342Z,6.60
2022-09-23T01:37:00.749Z,7.10
2022-09-23T01:39:04.971Z,7.67
2022-09-23T01:41:14.177Z,7.03
2022-09-23T01:43:20.107Z,7.33
2022-09-23T01:45:25.137Z,7.33
2022-09-23T01:47:31.415Z,7.10
2022-09-23T01:49:36.364Z,7.23
2022-09-23T01:51:39.770Z,6.90
2022-09-23T01:53:44.911Z,6.63
2022-09-23T01:55:49.983Z,7.60
2022-09-23T01:57:55.604Z,6.60
2022-09-23T02:00:00.468Z,6.50
2022-09-23T02:02:04.787Z,6.60
2022-09-23T02:04:11.430Z,6.40
2022-09-23T02:06:16.232Z,6.60
2022-09-23T02:08:20.478Z,6.60
2022-09-23T02:10:25.048Z,6.40
2022-09-23T02:12:29.305Z,6.87
2022-09-23T02:14:33.033Z,6.80
2022-09-23T02:16:39.433Z,6.20
2022-09-23T02:18:46.046Z,6.70
2022-09-23T02:20:50.237Z,7.10
2022-09-23T02:22:54.907Z,5.93
2022-09-23T02:24:57.640Z,6.60
2022-09-23T02:27:01.931Z,6.90
2022-09-23T02:29:09.260Z,6.73
2022-09-23T02:31:15.290Z,6.10
2022-09-23T02:33:20.710Z,6.60
2022-09-23T02:35:26.734Z,6.57
2022-09-23T02:37:35.322Z,6.67
2022-09-23T02:39:40.884Z,6.53
2022-09-23T02:41:47.912Z,6.40
2022-09-23T02:43:52.443Z,5.90
2022-09-23T02:45:56.081Z,6.77
2022-09-23T02:48:02.401Z,6.10
2022-09-23T02:50:05.456Z,6.30
2022-09-23T02:52:08.166Z,6.60
2022-09-23T02:54:14.526Z,5.90
2022-09-23T02:56:19.543Z,6.10
2022-09-23T02:58:22.136Z,6.13
2022-09-23T03:00:24.792Z,6.27
2022-09-23T03:02:38.915Z,5.60
2022-09-23T03:04:46.518Z,6.00
2022-09-23T03:06:57.115Z,5.37
2022-09-23T03:09:01.246Z,6.27
2022-09-23T03:11:08.479Z,6.27
2022-09-23T03:13:17.093Z,6.60
2022-09-23T03:15:23.855Z,6.20
2022-09-23T03:17:28.183Z,5.97
2022-09-23T03:19:33.848Z,5.53
2022-09-23T03:21:38.351Z,5.90
2022-09-23T03:23:41.263Z,5.90
2022-09-23T03:25:45.739Z,5.70
2022-09-23T03:27:50.271Z,5.70
2022-09-23T03:29:54.004Z,5.70
2022-09-23T03:31:57.248Z,4.93
2022-09-23T03:34:00.814Z,5.73
2022-09-23T03:36:15.925Z,5.40
2022-09-23T03:38:18.493Z,5.70
2022-09-23T03:40:22.154Z,5.40
2022-09-23T03:42:26.068Z,5.27
2022-09-23T03:44:31.059Z,6.10
2022-09-23T03:46:35.410Z,5.20
2022-09-23T03:48:37.965Z,5.23
2022-09-23T03:50:40.929Z,6.00
2022-09-23T03:52:43.489Z,5.27
2022-09-23T03:54:46.220Z,5.80
2022-09-23T03:56:48.994Z,5.33
2022-09-23T03:58:51.537Z,5.63
2022-09-23T04:00:58.252Z,5.27
2022-09-23T04:03:00.858Z,5.20
2022-09-23T04:05:03.421Z,5.23
2022-09-23T04:07:06.036Z,5.13
2022-09-23T04:09:09.035Z,5.10
2022-09-23T04:11:11.630Z,5.00
2022-09-23T04:13:14.201Z,5.27
2022-09-23T04:15:16.818Z,5.67
2022-09-23T04:17:20.979Z,4.70
2022-09-23T04:19:23.773Z,5.03
2022-09-23T04:21:26.700Z,4.90
2022-09-23T04:23:29.836Z,5.30
2022-09-23T04:25:32.910Z,5.10
2022-09-23T04:27:37.718Z,5.20
2022-09-23T04:29:40.670Z,5.30
2022-09-23T04:31:43.278Z,5.10
2022-09-23T04:33:47.578Z,5.10
2022-09-23T04:35:51.184Z,4.90
2022-09-23T04:37:53.789Z,4.50
2022-09-23T04:39:56.475Z,5.27
2022-09-23T04:41:59.598Z,4.80
2022-09-23T04:44:02.523Z,4.80
2022-09-23T04:46:06.514Z,4.73
2022-09-23T04:48:09.492Z,4.13
2022-09-23T04:50:13.660Z,4.97
2022-09-23T04:52:16.305Z,5.47
2022-09-23T04:54:18.935Z,4.93
2022-09-23T04:56:22.289Z,4.70
2022-09-23T04:58:25.337Z,5.50
2022-09-23T05:00:28.540Z,4.73
2022-09-23T05:02:32.087Z,5.27
2022-09-23T05:04:35.452Z,5.63
2022-09-23T05:06:39.813Z,5.10
2022-09-23T05:08:42.551Z,5.10
2022-09-23T05:10:46.027Z,4.73
2022-09-23T05:12:48.579Z,4.60
2022-09-23T05:14:51.508Z,5.37
2022-09-23T05:16:54.082Z,4.83
2022-09-23T05:18:57.517Z,4.83
2022-09-23T05:21:00.142Z,5.17
2022-09-23T05:23:04.486Z,4.93
2022-09-23T05:25:07.335Z,5.40
2022-09-23T05:27:09.910Z,5.23
2022-09-23T05:29:12.529Z,4.90
2022-09-23T05:31:20.036Z,4.53
2022-09-23T05:33:23.043Z,4.93
2022-09-23T05:35:25.717Z,4.67
2022-09-23T05:37:28.300Z,4.90
2022-09-23T05:39:32.568Z,4.90
2022-09-23T05:41:35.209Z,4.50
2022-09-23T05:43:37.940Z,5.20
2022-09-23T05:45:40.513Z,5.40
2022-09-23T05:47:43.984Z,5.03
2022-09-23T05:49:59.046Z,5.03
2022-09-23T05:52:02.235Z,5.07
2022-09-23T05:54:05.740Z,4.40
2022-09-23T05:56:10.311Z,4.70
2022-09-23T05:58:12.909Z,4.97
2022-09-23T06:00:16.513Z,5.10
2022-09-23T06:02:19.580Z,4.60
2022-09-23T06:04:22.155Z,5.23
2022-09-23T06:06:27.067Z,4.67
2022-09-23T06:08:29.629Z,5.20
2022-09-23T06:10:34.763Z,5.03
2022-09-23T06:12:38.603Z,4.93
2022-09-23T06:14:41.207Z,5.37
2022-09-23T06:16:44.075Z,4.47
2022-09-23T06:18:47.135Z,4.77
2022-09-23T06:20:49.699Z,5.03
2022-09-23T06:22:55.246Z,5.07
2022-09-23T06:24:58.193Z,5.13
2022-09-23T06:27:02.441Z,4.77
2022-09-23T06:29:09.905Z,5.10
2022-09-23T06:31:14.047Z,5.13
2022-09-23T06:33:21.614Z,5.20
2022-09-23T06:35:29.305Z,5.37
2022-09-23T06:37:33.443Z,4.60
2022-09-23T06:39:36.005Z,5.00
2022-09-23T06:41:39.082Z,5.43
2022-09-23T06:43:41.739Z,5.20
2022-09-23T06:45:45.658Z,5.50
2022-09-23T06:47:56.357Z,5.30
2022-09-23T06:49:58.931Z,5.63
2022-09-23T06:52:01.947Z,5.00
2022-09-23T06:54:04.716Z,5.70
2022-09-23T06:56:08.279Z,5.80
2022-09-23T06:58:11.005Z,5.63
2022-09-23T07:00:14.489Z,5.47
2022-09-23T07:02:18.476Z,6.33
2022-09-23T07:04:22.692Z,5.57
2022-09-23T07:06:26.656Z,5.90
2022-09-23T07:08:29.984Z,5.33
2022-09-23T07:10:32.862Z,6.50
2022-09-23T07:12:35.838Z,6.50
2022-09-23T07:14:38.412Z,6.87
2022-09-23T07:16:41.731Z,5.90
2022-09-23T07:18:45.663Z,6.40
2022-09-23T07:20:48.599Z,6.97
2022-09-23T07:22:52.121Z,6.43
2022-09-23T07:24:56.009Z,6.73
2022-09-23T07:26:58.594Z,6.10
2022-09-23T07:29:05.022Z,5.57
2022-09-23T07:31:09.476Z,5.90
2022-09-23T07:33:25.378Z,6.60
2022-09-23T07:35:34.067Z,6.60
2022-09-23T07:37:40.502Z,6.50
2022-09-23T07:39:44.708Z,6.50
2022-09-23T07:41:48.065Z,5.83
2022-09-23T07:43:52.617Z,7.37
2022-09-23T07:45:55.475Z,8.23
2022-09-23T07:47:58.053Z,7.23
2022-09-23T07:50:00.600Z,7.20
2022-09-23T07:52:04.918Z,8.30
2022-09-23T07:54:09.091Z,7.40
2022-09-23T07:56:11.991Z,7.93
2022-09-23T07:58:14.562Z,8.60
2022-09-23T08:00:17.857Z,8.37
2022-09-23T08:02:20.487Z,8.73
2022-09-23T08:04:24.545Z,9.30
2022-09-23T08:06:27.112Z,9.67
2022-09-23T08:08:31.813Z,9.73
2022-09-23T08:10:34.385Z,9.87
2022-09-23T08:12:37.026Z,8.50
2022-09-23T08:14:40.117Z,9.80
2022-09-23T08:16:43.941Z,9.70
2022-09-23T08:18:46.586Z,44.53
2022-09-23T08:20:49.168Z,83.43
2022-09-23T08:22:53.565Z,56.80
2022-09-23T08:24:58.323Z,37.57
2022-09-23T08:27:01.021Z,38.07
2022-09-23T08:29:03.871Z,24.30
2022-09-23T08:31:08.196Z,33.57
2022-09-23T08:33:11.174Z,36.07
2022-09-23T08:35:13.781Z,24.67
2022-09-23T08:37:16.357Z,32.77
2022-09-23T08:39:20.194Z,30.40
2022-09-23T08:41:28.932Z,22.00
2022-09-23T08:43:32.555Z,94.50
2022-09-23T08:45:35.537Z,24.40
2022-09-23T08:47:43.770Z,26.00
2022-09-23T08:49:51.687Z,26.23
2022-09-23T08:51:55.257Z,28.80
2022-09-23T08:53:58.619Z,27.80
2022-09-23T08:56:04.007Z,19.53
2022-09-23T08:58:27.001Z,20.73
2022-09-23T09:00:33.108Z,34.53
2022-09-23T09:02:35.976Z,52.13
2022-09-23T09:04:42.232Z,37.70
2022-09-23T09:06:53.449Z,25.73
2022-09-23T09:08:58.158Z,31.27
2022-09-23T09:11:00.925Z,20.27
2022-09-23T09:13:05.354Z,32.90
2022-09-23T09:15:13.015Z,26.73
2022-09-23T09:17:24.697Z,58.80
2022-09-23T09:19:38.410Z,40.07
2022-09-23T09:21:42.491Z,43.03
2022-09-23T09:23:48.908Z,19.93
2022-09-23T09:25:52.248Z,25.27
2022-09-23T09:27:55.520Z,29.77
2022-09-23T09:29:58.919Z,39.47
2022-09-23T09:32:02.962Z,18.13
2022-09-23T09:34:07.308Z,16.70
2022-09-23T09:36:20.039Z,70.37
2022-09-23T09:38:22.687Z,33.70
2022-09-23T09:40:25.743Z,17.40
2022-09-23T09:42:32.090Z,16.00
2022-09-23T09:44:40.573Z,15.77
2022-09-23T09:46:52.271Z,16.80
2022-09-23T09:48:57.620Z,15.80
2022-09-23T09:51:00.305Z,16.30
2022-09-23T09:53:18.930Z,14.50
2022-09-23T09:55:26.208Z,14.40
2022-09-23T09:57:35.208Z,14.87
2022-09-23T09:59:43.974Z,15.07
2022-09-23T10:01:47.183Z,14.97
2022-09-23T10:03:53.056Z,14.27
2022-09-23T10:05:59.715Z,14.40
2022-09-23T10:08:21.159Z,14.43
2022-09-23T10:10:33.462Z,14.60
2022-09-23T10:12:44.543Z,14.40
2022-09-23T10:14:51.242Z,14.03
2022-09-23T10:17:05.352Z,14.20
2022-09-23T10:19:14.716Z,14.13
2022-09-23T10:21:19.182Z,13.77
2022-09-23T10:23:23.785Z,13.10
2022-09-23T10:25:27.563Z,14.00
2022-09-23T10:27:32.433Z,13.80
2022-09-23T10:29:38.688Z,13.20
2022-09-23T10:31:41.403Z,13.30
2022-09-23T10:33:48.825Z,14.50
2022-09-23T10:35:57.175Z,13.30
2022-09-23T10:38:01.448Z,12.97
2022-09-23T10:40:25.721Z,13.37
2022-09-23T10:42:41.904Z,14.33
2022-09-23T10:45:03.853Z,12.90
2022-09-23T10:47:10.078Z,13.20
2022-09-23T10:49:22.172Z,12.63
2022-09-23T10:51:27.460Z,12.70
2022-09-23T10:53:34.695Z,13.27
2022-09-23T10:55:44.543Z,12.40
2022-09-23T10:57:58.446Z,12.90
2022-09-23T11:00:01.802Z,12.20
2022-09-23T11:02:12.864Z,12.10
2022-09-23T11:04:25.168Z,12.03
2022-09-23T11:06:31.860Z,12.67
2022-09-23T11:08:44.482Z,12.30
2022-09-23T11:10:56.164Z,12.13
2022-09-23T11:13:02.332Z,12.60
2022-09-23T11:15:20.008Z,13.33
2022-09-23T11:17:37.055Z,12.47
2022-09-23T11:19:53.739Z,11.73
2022-09-23T11:22:02.203Z,12.30
2022-09-23T11:24:15.793Z,12.20
2022-09-23T11:26:27.912Z,11.70
2022-09-23T11:28:45.987Z,11.27
2022-09-23T11:30:51.298Z,11.70
2022-09-23T11:33:13.985Z,11.30
2022-09-23T11:35:18.503Z,11.10
2022-09-23T11:37:22.373Z,10.80
2022-09-23T11:39:28.521Z,11.23
2022-09-23T11:41:31.721Z,11.10
2022-09-23T11:43:36.506Z,10.90
2022-09-23T11:45:42.528Z,10.13
2022-09-23T11:47:46.597Z,11.23
2022-09-23T11:49:51.256Z,10.57
2022-09-23T11:52:02.087Z,11.17
2022-09-23T11:54:07.096Z,10.73
2022-09-23T11:56:25.810Z,11.13
2022-09-23T11:58:32.063Z,10.30
2022-09-23T12:00:38.272Z,11.03
2022-09-23T12:03:00.583Z,11.03
2022-09-23T12:05:13.960Z,9.80
2022-09-23T12:07:18.908Z,10.70
2022-09-23T12:09:40.931Z,10.40
2022-09-23T12:11:49.149Z,10.47
2022-09-23T12:13:55.506Z,11.00
2022-09-23T12:16:07.353Z,10.17
2022-09-23T12:18:23.303Z,10.67
2022-09-23T12:20:43.231Z,10.60
2022-09-23T12:22:53.853Z,9.77
2022-09-23T12:24:58.332Z,10.17
2022-09-23T12:27:06.002Z,10.00
2022-09-23T12:29:11.096Z,10.80
2022-09-23T12:31:14.671Z,10.40
2022-09-23T12:33:24.437Z,9.60
2022-09-23T12:35:32.040Z,10.37
2022-09-23T12:37:36.275Z,10.17
2022-09-23T12:39:38.982Z,9.67
2022-09-23T12:41:42.069Z,11.00
2022-09-23T12:43:51.523Z,9.70
2022-09-23T12:45:54.120Z,9.53
2022-09-23T12:47:56.920Z,10.27
2022-09-23T12:50:00.933Z,9.73
2022-09-23T12:52:13.846Z,9.57
2022-09-23T12:54:23.701Z,9.63
2022-09-23T12:56:29.738Z,9.70
2022-09-23T12:58:39.544Z,9.70
2022-09-23T13:00:43.432Z,9.70
2022-09-23T13:03:08.138Z,9.40
2022-09-23T13:05:28.752Z,11.13
2022-09-23T13:07:33.890Z,10.73
2022-09-23T13:09:40.333Z,10.00
2022-09-23T13:11:43.742Z,8.73
2022-09-23T13:13:46.618Z,9.60
2022-09-23T13:15:50.725Z,9.80
2022-09-23T13:17:53.315Z,9.70
2022-09-23T13:20:03.356Z,9.90
2022-09-23T13:22:09.815Z,11.27
2022-09-23T13:24:18.344Z,10.90
2022-09-23T13:26:20.909Z,10.53
2022-09-23T13:28:28.637Z,10.00
2022-09-23T13:30:31.517Z,9.40
2022-09-23T13:32:36.837Z,9.63
2022-09-23T13:34:39.559Z,10.00
2022-09-23T13:36:48.444Z,10.33
2022-09-23T13:38:51.494Z,9.13
2022-09-23T13:40:54.980Z,10.17
2022-09-23T13:42:58.938Z,9.43
2022-09-23T13:45:01.566Z,10.20
2022-09-23T13:47:04.469Z,9.93
2022-09-23T13:49:20.303Z,10.20
2022-09-23T13:51:24.930Z,10.50
2022-09-23T13:53:28.562Z,10.30
2022-09-23T13:55:32.708Z,9.83
2022-09-23T13:57:35.626Z,10.80
2022-09-23T13:59:39.163Z,10.63
2022-09-23T14:01:41.752Z,10.80
2022-09-23T14:03:45.892Z,9.70
2022-09-23T14:05:50.201Z,9.30
2022-09-23T14:07:53.362Z,9.70
2022-09-23T14:09:57.682Z,9.57
2022-09-23T14:12:01.675Z,10.03
2022-09-23T14:14:07.918Z,11.00
2022-09-23T14:16:11.576Z,10.17
2022-09-23T14:18:18.341Z,9.57
2022-09-23T14:20:22.082Z,10.23
2022-09-23T14:22:28.257Z,9.23
2022-09-23T14:24:32.749Z,9.83
2022-09-23T14:26:35.372Z,9.57
2022-09-23T14:28:38.147Z,8.47
2022-09-23T14:30:40.805Z,9.10
2022-09-23T14:32:44.132Z,8.40
2022-09-23T14:34:50.463Z,9.50
2022-09-23T14:37:06.935Z,8.63
2022-09-23T14:39:11.831Z,9.53
2022-09-23T14:41:17.517Z,8.93
2022-09-23T14:43:23.524Z,8.20
2022-09-23T14:45:27.594Z,9.97
2022-09-23T14:47:30.279Z,9.73
2022-09-23T14:49:32.883Z,8.60
2022-09-23T14:51:38.789Z,8.87
2022-09-23T14:53:42.480Z,9.03
2022-09-23T14:55:46.520Z,8.80
2022-09-23T14:57:49.463Z,8.77
2022-09-23T14:59:53.523Z,8.40
2022-09-23T15:01:56.162Z,9.17
2022-09-23T15:03:58.878Z,9.33
2022-09-23T15:06:08.289Z,9.00
2022-09-23T15:08:13.082Z,7.90
2022-09-23T15:10:19.844Z,9.30
2022-09-23T15:12:23.735Z,8.17
2022-09-23T15:14:37.926Z,9.10
2022-09-23T15:16:41.678Z,7.63
2022-09-23T15:18:45.085Z,8.40
2022-09-23T15:20:50.435Z,8.83
2022-09-23T15:22:54.734Z,8.20
2022-09-23T15:25:09.780Z,8.57
2022-09-23T15:27:22.963Z,7.87
2022-09-23T15:29:27.340Z,9.20
2022-09-23T15:31:29.928Z,8.43
2022-09-23T15:33:32.599Z,7.97
2022-09-23T15:35:36.510Z,8.53
2022-09-23T15:37:39.116Z,7.70
2022-09-23T15:39:41.817Z,8.20
2022-09-23T15:41:47.089Z,8.70
2022-09-23T15:43:51.194Z,8.97
2022-09-23T15:45:56.355Z,8.27
2022-09-23T15:48:00.775Z,8.63
2022-09-23T15:50:03.328Z,8.20
2022-09-23T15:52:07.089Z,8.17
2022-09-23T15:54:10.241Z,8.40
2022-09-23T15:56:13.223Z,7.97
2022-09-23T15:58:16.086Z,8.00
2022-09-23T16:00:18.811Z,8.10
2022-09-23T16:02:23.487Z,7.73
2022-09-23T16:04:26.143Z,8.70
2022-09-23T16:06:28.985Z,8.67
2022-09-23T16:08:37.549Z,8.03
2022-09-23T16:10:40.273Z,7.87
2022-09-23T16:12:42.922Z,7.53
2022-09-23T16:14:45.797Z,7.90
2022-09-23T16:16:48.447Z,8.70
2022-09-23T16:18:52.343Z,7.70
2022-09-23T16:20:55.123Z,7.90
2022-09-23T16:22:58.747Z,8.17
2022-09-23T16:25:01.292Z,8.47
2022-09-23T16:27:04.594Z,7.90
2022-09-23T16:29:07.326Z,8.00
2022-09-23T16:31:11.152Z,8.30
2022-09-23T16:33:13.836Z,7.83
2022-09-23T16:35:17.668Z,8.57
2022-09-23T16:37:21.286Z,8.13
2022-09-23T16:39:30.090Z,7.50
2022-09-23T16:41:32.903Z,8.67
2022-09-23T16:43:39.679Z,8.17
2022-09-23T16:45:45.845Z,8.27
2022-09-23T16:47:49.128Z,8.43
2022-09-23T16:49:51.728Z,8.00
2022-09-23T16:51:55.562Z,8.67
2022-09-23T16:53:59.081Z,8.67
2022-09-23T16:56:06.459Z,7.80
2022-09-23T16:58:09.006Z,8.57
2022-09-23T17:00:25.383Z,8.70
2022-09-23T17:02:39.038Z,7.90
2022-09-23T17:04:41.630Z,8.23
2022-09-23T17:06:44.511Z,8.40
2022-09-23T17:08:49.291Z,7.67
2022-09-23T17:10:58.523Z,8.83
2022-09-23T17:13:01.565Z,8.17
2022-09-23T17:15:05.304Z,8.20
2022-09-23T17:17:07.868Z,8.33
2022-09-23T17:19:14.133Z,8.50
2022-09-23T17:21:19.266Z,8.20
2022-09-23T17:23:22.091Z,7.60
2022-09-23T17:25:26.018Z,8.30
2022-09-23T17:27:28.626Z,8.50
2022-09-23T17:29:31.225Z,8.00
2022-09-23T17:31:34.167Z,7.80
2022-09-23T17:33:38.732Z,7.80
2022-09-23T17:35:41.390Z,7.70
2022-09-23T17:37:43.967Z,7.33
2022-09-23T17:39:47.161Z,8.50
2022-09-23T17:41:51.176Z,8.30
2022-09-23T17:43:56.535Z,7.70
2022-09-23T17:46:04.341Z,8.60
2022-09-23T17:48:07.291Z,8.10
2022-09-23T17:50:10.161Z,8.70
2022-09-23T17:52:12.724Z,8.23
2022-09-23T17:54:15.903Z,8.00
2022-09-23T17:56:19.706Z,7.10
2022-09-23T17:58:26.848Z,8.60
2022-09-23T18:00:29.411Z,7.73
2022-09-23T18:02:32.107Z,8.27
2022-09-23T18:04:34.993Z,9.10
2022-09-23T18:06:38.071Z,7.53
2022-09-23T18:08:40.949Z,8.03
2022-09-23T18:10:43.525Z,8.40
2022-09-23T18:12:46.342Z,8.10
2022-09-23T18:14:50.642Z,8.60
2022-09-23T18:16:54.004Z,8.67
2022-09-23T18:18:57.339Z,8.30
2022-09-23T18:21:01.534Z,8.87
2022-09-23T18:23:04.180Z,8.90
2022-09-23T18:25:22.991Z,8.77
2022-09-23T18:27:30.500Z,8.70
2022-09-23T18:29:33.766Z,9.20
2022-09-23T18:31:38.033Z,9.13
2022-09-23T18:33:40.708Z,8.80
2022-09-23T18:35:43.259Z,9.20
2022-09-23T18:37:50.379Z,9.70
2022-09-23T18:39:52.954Z,8.87
2022-09-23T18:41:55.562Z,8.60
2022-09-23T18:43:58.274Z,7.97
2022-09-23T18:46:02.056Z,8.70
2022-09-23T18:48:17.018Z,8.73
2022-09-23T18:50:30.593Z,8.37
2022-09-23T18:52:33.173Z,9.00
2022-09-23T18:54:36.042Z,9.20
2022-09-23T18:56:40.966Z,9.80
2022-09-23T18:58:46.161Z,9.40
2022-09-23T19:00:50.238Z,9.37
2022-09-23T19:02:52.940Z,8.27
2022-09-23T19:04:57.001Z,8.80
2022-09-23T19:06:59.568Z,9.27
2022-09-23T19:09:02.428Z,9.03
2022-09-23T19:11:06.299Z,9.20
2022-09-23T19:13:08.869Z,9.40
2022-09-23T19:15:12.142Z,8.93
2022-09-23T19:17:15.215Z,9.60
2022-09-23T19:19:17.760Z,9.43
2022-09-23T19:21:22.464Z,9.83
2022-09-23T19:23:25.523Z,9.27
2022-09-23T19:25:28.592Z,9.87
2022-09-23T19:27:31.858Z,9.77
2022-09-23T19:29:34.764Z,9.40
2022-09-23T19:31:40.735Z,9.60
2022-09-23T19:33:46.251Z,9.63
2022-09-23T19:35:53.565Z,10.40
2022-09-23T19:37:57.975Z,9.77
2022-09-23T19:40:00.998Z,11.20
2022-09-23T19:42:03.694Z,10.73
2022-09-23T19:44:07.578Z,10.30
2022-09-23T19:46:11.474Z,10.37
2022-09-23T19:48:14.586Z,10.50
2022-09-23T19:50:19.340Z,10.67
2022-09-23T19:52:23.002Z,10.80
2022-09-23T19:54:29.644Z,11.93
2022-09-23T19:56:33.268Z,10.90
2022-09-23T19:58:36.006Z,12.60
2022-09-23T20:00:39.575Z,11.70
2022-09-23T20:02:43.445Z,10.97
2022-09-23T20:04:46.577Z,11.67
2022-09-23T20:06:49.734Z,12.10
2022-09-23T20:08:52.695Z,11.50
2022-09-23T20:10:56.917Z,11.33
2022-09-23T20:13:00.649Z,11.00
2022-09-23T20:15:03.471Z,11.27
2022-09-23T20:17:07.623Z,10.90
2022-09-23T20:19:11.600Z,10.70
2022-09-23T20:21:15.251Z,11.03
2022-09-23T20:23:18.209Z,10.60
2022-09-23T20:25:21.005Z,10.70
2022-09-23T20:27:25.420Z,10.73
2022-09-23T20:29:28.793Z,11.47
2022-09-23T20:31:32.233Z,10.47
2022-09-23T20:33:35.363Z,11.03
2022-09-23T20:35:38.096Z,10.93
2022-09-23T20:37:41.413Z,11.53
2022-09-23T20:39:45.992Z,10.63
2022-09-23T20:41:50.372Z,11.20
2022-09-23T20:43:55.477Z,11.17
2022-09-23T20:45:59.169Z,10.60
2022-09-23T20:48:03.485Z,9.67
2022-09-23T20:50:07.838Z,10.47
2022-09-23T20:52:10.598Z,10.43
2022-09-23T20:54:14.414Z,10.33
2022-09-23T20:56:18.963Z,9.10
2022-09-23T20:58:27.197Z,11.00
2022-09-23T21:00:33.077Z,10.53
2022-09-23T21:02:37.443Z,10.97
2022-09-23T21:04:40.032Z,11.03
2022-09-23T21:06:42.697Z,10.67
2022-09-23T21:08:45.261Z,11.63
2022-09-23T21:10:55.018Z,10.67
2022-09-23T21:12:57.670Z,10.57
2022-09-23T21:15:00.879Z,11.37
2022-09-23T21:17:05.434Z,10.43
2022-09-23T21:19:08.740Z,10.80
2022-09-23T21:21:12.180Z,10.57
2022-09-23T21:23:14.912Z,10.33
2022-09-23T21:25:33.994Z,10.37
2022-09-23T21:27:37.851Z,10.30
2022-09-23T21:29:40.418Z,10.17
2022-09-23T21:31:43.411Z,12.13
2022-09-23T21:33:47.701Z,10.20
2022-09-23T21:35:51.462Z,10.20
2022-09-23T21:37:54.298Z,10.17
2022-09-23T21:40:11.155Z,10.90
2022-09-23T21:42:13.751Z,9.97
2022-09-23T21:44:16.988Z,9.57
2022-09-23T21:46:21.523Z,11.13
2022-09-23T21:48:24.689Z,10.23
2022-09-23T21:50:30.272Z,9.77
2022-09-23T21:52:35.516Z,11.10
2022-09-23T21:54:38.423Z,9.70
2022-09-23T21:56:41.356Z,10.53
2022-09-23T21:58:44.047Z,9.87
2022-09-23T22:00:46.621Z,10.23
2022-09-23T22:02:49.727Z,9.83
2022-09-23T22:04:53.410Z,10.37
2022-09-23T22:06:57.355Z,10.53
2022-09-23T22:09:00.940Z,10.10
2022-09-23T22:11:06.211Z,9.73
2022-09-23T22:13:12.723Z,10.13
2022-09-23T22:15:18.071Z,10.20
2022-09-23T22:17:21.250Z,10.03
2022-09-23T22:19:25.350Z,10.60
2022-09-23T22:21:28.929Z,10.70
2022-09-23T22:23:33.155Z,9.97
2022-09-23T22:25:35.770Z,10.43
2022-09-23T22:27:58.798Z,10.00
2022-09-23T22:30:12.356Z,9.57
2022-09-23T22:32:25.921Z,10.23
2022-09-23T22:34:48.685Z,10.50
2022-09-23T22:36:51.247Z,9.93
2022-09-23T22:38:59.138Z,9.73
2022-09-23T22:41:02.091Z,10.07
2022-09-23T22:43:05.124Z,11.03
2022-09-23T22:45:08.674Z,9.93
2022-09-23T22:47:11.482Z,10.00
2022-09-23T22:49:14.681Z,10.73
2022-09-23T22:51:18.139Z,10.23
2022-09-23T22:53:20.913Z,10.70
2022-09-23T22:55:25.336Z,10.17
2022-09-23T22:57:27.933Z,10.07
2022-09-23T22:59:30.812Z,10.23
2022-09-23T23:01:34.084Z,9.63
2022-09-23T23:03:37.129Z,11.07
2022-09-23T23:05:39.786Z,10.63
2022-09-23T23:07:43.281Z,10.67
2022-09-23T23:09:46.676Z,9.63
2022-09-23T23:11:50.598Z,9.77
2022-09-23T23:13:54.360Z,10.80
2022-09-23T23:15:58.774Z,9.80
2022-09-23T23:18:01.396Z,9.83
2022-09-23T23:20:03.952Z,10.73
2022-09-23T23:22:06.932Z,10.07
2022-09-23T23:24:14.579Z,9.70
2022-09-23T23:26:19.796Z,10.10
2022-09-23T23:28:23.660Z,10.20
2022-09-23T23:30:26.680Z,9.93
2022-09-23T23:32:29.446Z,10.23
2022-09-23T23:34:32.015Z,10.20
2022-09-23T23:36:34.640Z,10.10
2022-09-23T23:38:38.782Z,10.43
2022-09-23T23:40:41.367Z,10.37
2022-09-23T23:42:44.008Z,8.83
2022-09-23T23:44:47.896Z,10.40
2022-09-23T23:46:51.072Z,9.93
2022-09-23T23:48:54.054Z,10.20
2022-09-23T23:50:57.269Z,9.53
2022-09-23T23:52:59.831Z,10.30
2022-09-23T23:55:02.850Z,9.47
2022-09-23T23:57:05.435Z,10.37
2022-09-23T23:59:07.977Z,9.07
